createdAt,value
2019-05-18T00:01:13.347Z,8.53
2019-05-18T00:03:41.784Z,9.43
2019-05-18T00:06:10.214Z,9.38
2019-05-18T00:08:38.676Z,9.43
2019-05-18T00:11:07.190Z,9.80
2019-05-18T00:13:35.633Z,9.83
2019-05-18T00:16:04.076Z,9.35
2019-05-18T00:18:32.518Z,10.53
2019-05-18T00:21:00.972Z,10.08
2019-05-18T00:23:29.408Z,9.95
2019-05-18T00:25:57.860Z,9.80
2019-05-18T00:28:26.455Z,9.63
2019-05-18T00:30:54.896Z,9.63
2019-05-18T00:33:23.349Z,10.10
2019-05-18T00:35:51.789Z,9.10
2019-05-18T00:38:20.233Z,9.25
2019-05-18T00:40:48.754Z,9.88
2019-05-18T00:43:17.194Z,9.13
2019-05-18T00:45:45.646Z,9.65
2019-05-18T00:48:14.078Z,9.45
2019-05-18T00:50:42.687Z,8.90
2019-05-18T00:53:11.130Z,9.78
2019-05-18T00:55:39.576Z,8.93
2019-05-18T00:58:08.017Z,8.60
2019-05-18T01:00:36.458Z,9.75
2019-05-18T01:03:04.976Z,10.55
2019-05-18T01:05:33.502Z,11.25
2019-05-18T01:08:01.940Z,12.58
2019-05-18T01:10:30.407Z,13.50
2019-05-18T01:12:58.847Z,12.37
2019-05-18T01:15:27.290Z,12.35
2019-05-18T01:17:57.847Z,13.35
2019-05-18T01:20:25.905Z,13.25
2019-05-18T01:22:54.344Z,12.25
2019-05-18T01:25:22.784Z,12.07
2019-05-18T01:27:51.225Z,11.80
2019-05-18T01:30:19.740Z,11.43
2019-05-18T01:32:48.174Z,10.90
2019-05-18T01:35:18.156Z,10.95
2019-05-18T01:37:46.597Z,10.72
2019-05-18T01:40:15.434Z,10.50
2019-05-18T01:42:43.880Z,11.08
2019-05-18T01:45:16.918Z,10.78
2019-05-18T01:47:42.808Z,11.25
2019-05-18T01:50:11.488Z,9.85
2019-05-18T01:52:39.919Z,9.90
2019-05-18T01:55:15.234Z,9.10
2019-05-18T01:57:43.664Z,9.20
2019-05-18T02:00:12.435Z,9.63
2019-05-18T02:02:40.968Z,10.18
2019-05-18T02:05:09.973Z,9.78
2019-05-18T02:07:38.421Z,9.73
2019-05-18T02:10:07.983Z,8.80
2019-05-18T02:12:36.406Z,9.58
2019-05-18T02:15:06.673Z,8.70
2019-05-18T02:17:35.099Z,9.10
2019-05-18T02:20:03.901Z,8.90
2019-05-18T02:22:32.591Z,8.23
2019-05-18T02:25:01.021Z,7.97
2019-05-18T02:27:29.460Z,8.53
2019-05-18T02:29:57.888Z,8.40
2019-05-18T02:32:26.325Z,8.45
2019-05-18T02:34:54.754Z,9.10
2019-05-18T02:37:23.189Z,9.65
2019-05-18T02:39:53.249Z,9.65
2019-05-18T02:42:21.690Z,8.88
2019-05-18T02:44:50.120Z,9.48
2019-05-18T02:47:18.555Z,9.35
2019-05-18T02:49:46.979Z,9.70
2019-05-18T02:52:15.411Z,9.35
2019-05-18T02:54:43.848Z,9.03
2019-05-18T02:57:12.275Z,9.25
2019-05-18T02:59:40.708Z,8.83
2019-05-18T03:02:09.153Z,9.58
2019-05-18T03:04:37.637Z,9.63
2019-05-18T03:07:06.074Z,9.90
2019-05-18T03:09:34.505Z,10.50
2019-05-18T03:12:03.106Z,10.15
2019-05-18T03:14:31.536Z,8.75
2019-05-18T03:17:00.031Z,8.90
2019-05-18T03:19:28.829Z,8.90
2019-05-18T03:22:00.754Z,8.33
2019-05-18T03:24:27.426Z,8.38
2019-05-18T03:26:55.873Z,9.35
2019-05-18T03:29:24.305Z,8.73
2019-05-18T03:31:52.731Z,8.98
2019-05-18T03:34:21.157Z,9.20
2019-05-18T03:36:49.615Z,8.53
2019-05-18T03:39:18.031Z,9.03
2019-05-18T03:41:46.462Z,9.03
2019-05-18T03:44:14.892Z,8.65
2019-05-18T03:46:43.329Z,8.85
2019-05-18T03:49:26.041Z,8.73
2019-05-18T03:51:41.932Z,8.90
2019-05-18T03:54:10.360Z,8.65
2019-05-18T03:56:58.140Z,8.10
2019-05-18T03:59:26.580Z,7.62
2019-05-18T04:01:55.008Z,8.78
2019-05-18T04:04:23.581Z,7.78
2019-05-18T04:06:52.267Z,7.35
2019-05-18T04:09:20.695Z,8.13
2019-05-18T04:11:49.125Z,7.83
2019-05-18T04:14:17.562Z,8.33
2019-05-18T04:16:46.061Z,7.83
2019-05-18T04:19:14.483Z,8.33
2019-05-18T04:21:42.930Z,8.20
2019-05-18T04:24:11.352Z,8.38
2019-05-18T04:26:39.801Z,8.35
2019-05-18T04:29:08.231Z,8.90
2019-05-18T04:31:36.680Z,8.40
2019-05-18T04:34:05.115Z,8.38
2019-05-18T04:36:33.556Z,8.33
2019-05-18T04:39:01.976Z,8.50
2019-05-18T04:41:30.403Z,8.03
2019-05-18T04:43:58.839Z,7.50
2019-05-18T04:46:27.290Z,7.42
2019-05-18T04:48:55.809Z,7.95
2019-05-18T04:51:24.288Z,8.10
2019-05-18T04:53:52.716Z,7.45
2019-05-18T04:56:21.145Z,7.20
2019-05-18T04:58:49.580Z,7.35
2019-05-18T05:01:18.003Z,6.83
2019-05-18T05:03:46.435Z,7.05
2019-05-18T05:06:14.860Z,6.78
2019-05-18T05:08:43.368Z,7.45
2019-05-18T05:11:11.790Z,7.08
2019-05-18T05:13:40.229Z,6.47
2019-05-18T05:16:08.648Z,6.87
2019-05-18T05:18:37.080Z,6.42
2019-05-18T05:21:05.512Z,6.47
2019-05-18T05:23:33.945Z,6.83
2019-05-18T05:26:02.370Z,6.72
2019-05-18T05:28:30.804Z,7.20
2019-05-18T05:31:18.568Z,6.97
2019-05-18T05:33:47.014Z,7.00
2019-05-18T05:36:15.440Z,7.00
2019-05-18T05:38:43.872Z,6.85
2019-05-18T05:41:16.540Z,6.90
2019-05-18T05:43:42.464Z,6.00
2019-05-18T05:46:10.891Z,6.10
2019-05-18T05:48:39.346Z,6.55
2019-05-18T05:51:07.824Z,6.25
2019-05-18T05:53:36.251Z,6.47
2019-05-18T05:56:04.692Z,6.30
2019-05-18T05:58:33.124Z,6.50
2019-05-18T06:01:01.552Z,6.35
2019-05-18T06:03:29.984Z,6.22
2019-05-18T06:05:58.408Z,6.20
2019-05-18T06:08:26.843Z,6.05
2019-05-18T06:10:55.273Z,6.50
2019-05-18T06:13:23.715Z,6.92
2019-05-18T06:15:52.178Z,6.95
2019-05-18T06:18:20.600Z,7.22
2019-05-18T06:20:51.326Z,6.47
2019-05-18T06:23:19.172Z,6.87
2019-05-18T06:25:47.606Z,7.10
2019-05-18T06:28:16.040Z,6.70
2019-05-18T06:30:44.468Z,6.42
2019-05-18T06:33:12.909Z,6.95
2019-05-18T06:35:41.339Z,6.70
2019-05-18T06:38:09.785Z,7.45
2019-05-18T06:40:38.235Z,6.65
2019-05-18T06:43:06.663Z,7.40
2019-05-18T06:45:35.092Z,6.60
2019-05-18T06:48:03.595Z,6.85
2019-05-18T06:50:32.129Z,6.55
2019-05-18T06:53:00.818Z,7.10
2019-05-18T06:55:29.266Z,7.28
2019-05-18T06:57:58.123Z,7.25
2019-05-18T07:00:27.214Z,6.47
2019-05-18T07:02:55.639Z,7.17
2019-05-18T07:05:24.059Z,6.80
2019-05-18T07:07:52.497Z,6.53
2019-05-18T07:10:20.924Z,6.45
2019-05-18T07:13:08.687Z,7.17
2019-05-18T07:15:37.137Z,7.00
2019-05-18T07:18:05.562Z,7.12
2019-05-18T07:20:33.999Z,8.05
2019-05-18T07:23:02.534Z,7.83
2019-05-18T07:25:31.015Z,6.95
2019-05-18T07:27:59.436Z,7.10
2019-05-18T07:30:47.209Z,6.67
2019-05-18T07:33:15.632Z,6.80
2019-05-18T07:35:44.073Z,6.28
2019-05-18T07:38:12.505Z,6.28
2019-05-18T07:40:40.929Z,6.53
2019-05-18T07:43:09.373Z,7.03
2019-05-18T07:45:37.807Z,5.80
2019-05-18T07:48:06.303Z,6.62
2019-05-18T07:50:34.739Z,6.10
2019-05-18T07:53:03.168Z,7.25
2019-05-18T07:55:31.609Z,6.33
2019-05-18T07:58:00.023Z,5.78
2019-05-18T08:00:28.468Z,6.45
2019-05-18T08:02:56.887Z,6.78
2019-05-18T08:05:25.346Z,7.47
2019-05-18T08:07:53.770Z,6.60
2019-05-18T08:10:36.437Z,6.97
2019-05-18T08:13:06.184Z,6.75
2019-05-18T08:15:35.867Z,6.97
2019-05-18T08:18:04.352Z,6.60
2019-05-18T08:20:33.945Z,6.05
2019-05-18T08:23:02.612Z,7.03
2019-05-18T08:25:31.045Z,7.65
2019-05-18T08:27:59.483Z,7.30
2019-05-18T08:30:27.916Z,6.25
2019-05-18T08:32:56.369Z,6.33
2019-05-18T08:35:27.127Z,5.70
2019-05-18T08:37:54.968Z,5.92
2019-05-18T08:40:23.453Z,6.72
2019-05-18T08:42:52.539Z,5.97
2019-05-18T08:45:21.034Z,5.85
2019-05-18T08:47:49.462Z,6.12
2019-05-18T08:50:17.986Z,6.15
2019-05-18T08:52:46.406Z,6.92
2019-05-18T08:55:16.007Z,6.40
2019-05-18T08:57:44.443Z,6.55
2019-05-18T09:00:13.070Z,9.05
2019-05-18T09:02:41.746Z,6.33
2019-05-18T09:05:10.907Z,5.40
2019-05-18T09:07:39.346Z,5.45
2019-05-18T09:10:08.518Z,5.30
2019-05-18T09:12:37.005Z,4.85
2019-05-18T09:15:08.844Z,4.97
2019-05-18T09:17:37.291Z,5.58
2019-05-18T09:20:07.924Z,5.80
2019-05-18T09:22:36.348Z,6.33
2019-05-18T09:25:06.348Z,5.15
2019-05-18T09:27:34.814Z,5.62
2019-05-18T09:30:03.717Z,5.50
2019-05-18T09:32:32.215Z,5.58
2019-05-18T09:35:00.643Z,4.97
2019-05-18T09:37:29.160Z,5.65
2019-05-18T09:39:57.587Z,6.17
2019-05-18T09:42:26.041Z,5.33
2019-05-18T09:44:54.469Z,5.17
2019-05-18T09:47:22.911Z,4.83
2019-05-18T09:49:51.348Z,4.90
2019-05-18T09:52:19.793Z,5.92
2019-05-18T09:54:48.200Z,5.25
2019-05-18T09:57:16.641Z,4.80
2019-05-18T09:59:45.075Z,5.30
2019-05-18T10:02:13.508Z,5.47
2019-05-18T10:04:41.933Z,4.78
2019-05-18T10:07:10.382Z,5.67
2019-05-18T10:09:39.818Z,4.95
2019-05-18T10:12:08.441Z,5.90
2019-05-18T10:14:36.861Z,5.17
2019-05-18T10:17:05.330Z,4.95
2019-05-18T10:19:33.758Z,4.80
2019-05-18T10:22:02.202Z,5.00
2019-05-18T10:24:30.615Z,5.22
2019-05-18T10:26:59.052Z,5.35
2019-05-18T10:29:28.662Z,5.55
2019-05-18T10:31:57.104Z,7.60
2019-05-18T10:34:25.556Z,5.50
2019-05-18T10:36:53.985Z,5.30
2019-05-18T10:39:22.410Z,4.97
2019-05-18T10:41:50.920Z,5.47
2019-05-18T10:44:19.349Z,5.00
2019-05-18T10:46:48.053Z,4.90
2019-05-18T10:49:16.482Z,5.47
2019-05-18T10:51:44.909Z,5.22
2019-05-18T10:54:13.341Z,5.08
2019-05-18T10:56:41.804Z,5.28
2019-05-18T10:59:10.302Z,5.03
2019-05-18T11:01:38.741Z,5.03
2019-05-18T11:04:07.251Z,5.70
2019-05-18T11:06:35.741Z,5.03
2019-05-18T11:09:06.080Z,5.00
2019-05-18T11:11:35.185Z,5.12
2019-05-18T11:14:03.618Z,4.97
2019-05-18T11:16:32.055Z,5.62
2019-05-18T11:19:00.476Z,5.70
2019-05-18T11:21:28.916Z,4.80
2019-05-18T11:23:57.352Z,5.05
2019-05-18T11:26:25.802Z,5.28
2019-05-18T11:28:54.274Z,4.92
2019-05-18T11:31:22.743Z,5.00
2019-05-18T11:33:51.184Z,5.60
2019-05-18T11:36:19.687Z,4.97
2019-05-18T11:38:48.121Z,5.15
2019-05-18T11:41:16.583Z,5.60
2019-05-18T11:43:45.013Z,5.65
2019-05-18T11:46:13.448Z,5.40
2019-05-18T11:48:41.888Z,5.70
2019-05-18T11:51:10.315Z,5.80
2019-05-18T11:53:38.993Z,5.25
2019-05-18T11:56:07.429Z,4.97
2019-05-18T11:58:35.875Z,6.03
2019-05-18T12:01:04.471Z,5.70
2019-05-18T12:03:32.899Z,5.53
2019-05-18T12:06:01.330Z,6.00
2019-05-18T12:08:29.847Z,6.17
2019-05-18T12:11:05.218Z,5.65
2019-05-18T12:13:33.755Z,6.28
2019-05-18T12:16:02.174Z,6.53
2019-05-18T12:18:30.609Z,6.37
2019-05-18T12:20:59.077Z,6.30
2019-05-18T12:23:27.537Z,6.28
2019-05-18T12:26:02.081Z,6.87
2019-05-18T12:28:31.559Z,5.97
2019-05-18T12:31:02.045Z,6.42
2019-05-18T12:33:30.273Z,6.47
2019-05-18T12:35:58.705Z,6.67
2019-05-18T12:38:27.143Z,6.53
2019-05-18T12:40:55.568Z,7.17
2019-05-18T12:43:24.012Z,7.85
2019-05-18T12:45:52.436Z,6.85
2019-05-18T12:48:20.873Z,8.28
2019-05-18T12:50:49.289Z,7.05
2019-05-18T12:53:17.908Z,8.25
2019-05-18T12:55:46.339Z,8.45
2019-05-18T12:58:14.782Z,8.40
2019-05-18T13:00:43.224Z,8.00
2019-05-18T13:03:11.651Z,8.75
2019-05-18T13:05:40.131Z,7.97
2019-05-18T13:08:08.641Z,9.15
2019-05-18T13:10:37.092Z,8.60
2019-05-18T13:13:05.590Z,8.93
2019-05-18T13:15:34.028Z,8.55
2019-05-18T13:18:02.464Z,9.20
2019-05-18T13:20:30.894Z,8.53
2019-05-18T13:22:59.358Z,8.65
2019-05-18T13:25:27.832Z,9.55
2019-05-18T13:27:56.300Z,9.15
2019-05-18T13:30:24.896Z,9.88
2019-05-18T13:32:53.333Z,10.55
2019-05-18T13:35:21.837Z,10.28
2019-05-18T13:37:50.275Z,10.40
2019-05-18T13:40:19.087Z,9.85
2019-05-18T13:42:47.583Z,10.08
2019-05-18T13:45:16.579Z,10.32
2019-05-18T13:47:45.012Z,10.78
2019-05-18T13:50:14.095Z,10.95
2019-05-18T13:52:43.108Z,10.28
2019-05-18T13:55:11.969Z,11.10
2019-05-18T13:57:40.428Z,10.28
2019-05-18T14:00:09.520Z,10.90
2019-05-18T14:02:37.949Z,11.10
2019-05-18T14:05:07.324Z,11.78
2019-05-18T14:07:35.823Z,10.60
2019-05-18T14:10:12.080Z,12.25
2019-05-18T14:12:39.144Z,11.68
2019-05-18T14:15:08.223Z,12.18
2019-05-18T14:17:36.668Z,12.78
2019-05-18T14:20:05.550Z,13.62
2019-05-18T14:22:34.028Z,13.70
2019-05-18T14:25:10.565Z,13.50
2019-05-18T14:27:32.701Z,14.23
2019-05-18T14:30:01.143Z,15.78
2019-05-18T14:32:29.581Z,14.73
2019-05-18T14:34:58.020Z,14.73
2019-05-18T14:37:26.457Z,15.48
2019-05-18T14:39:54.891Z,15.13
2019-05-18T14:42:23.338Z,15.08
2019-05-18T14:44:51.781Z,15.43
2019-05-18T14:47:20.215Z,14.55
2019-05-18T14:49:48.655Z,14.20
2019-05-18T14:52:17.084Z,14.18
2019-05-18T14:54:45.527Z,14.35
2019-05-18T14:57:13.947Z,12.78
2019-05-18T14:59:42.388Z,11.48
2019-05-18T15:02:10.884Z,11.80
2019-05-18T15:04:39.336Z,12.88
2019-05-18T15:07:07.776Z,11.73
2019-05-18T15:09:36.219Z,11.53
2019-05-18T15:12:04.660Z,12.20
2019-05-18T15:14:33.106Z,12.73
2019-05-18T15:17:01.709Z,13.00
2019-05-18T15:19:30.149Z,12.63
2019-05-18T15:21:58.828Z,12.55
2019-05-18T15:24:27.276Z,12.07
2019-05-18T15:26:55.712Z,13.20
2019-05-18T15:29:24.153Z,13.28
2019-05-18T15:31:52.591Z,13.03
2019-05-18T15:34:21.050Z,12.15
2019-05-18T15:36:49.553Z,11.97
2019-05-18T15:39:17.979Z,12.18
2019-05-18T15:41:46.419Z,13.35
2019-05-18T15:44:14.852Z,12.25
2019-05-18T15:46:43.304Z,10.58
2019-05-18T15:49:11.772Z,9.83
2019-05-18T15:51:40.268Z,10.18
2019-05-18T15:54:08.734Z,10.15
2019-05-18T15:56:37.223Z,10.05
2019-05-18T15:59:05.675Z,10.50
2019-05-18T16:01:34.134Z,10.25
2019-05-18T16:04:02.616Z,10.82
2019-05-18T16:06:31.062Z,10.88
2019-05-18T16:08:59.491Z,10.58
2019-05-18T16:11:27.939Z,10.58
2019-05-18T16:13:56.377Z,10.70
2019-05-18T16:16:24.884Z,10.15
2019-05-18T16:18:53.315Z,11.03
2019-05-18T16:21:21.751Z,10.60
2019-05-18T16:23:50.189Z,12.60
2019-05-18T16:26:21.658Z,13.08
2019-05-18T16:28:48.792Z,11.48
2019-05-18T16:31:17.241Z,11.38
2019-05-18T16:33:45.671Z,11.30
2019-05-18T16:36:14.117Z,12.00
2019-05-18T16:38:42.549Z,12.63
2019-05-18T16:41:10.988Z,11.48
2019-05-18T16:43:39.428Z,10.45
2019-05-18T16:46:07.867Z,10.48
2019-05-18T16:48:39.373Z,9.93
2019-05-18T16:51:06.467Z,10.35
2019-05-18T16:53:34.904Z,9.85
2019-05-18T16:56:03.344Z,9.70
2019-05-18T16:58:31.778Z,9.25
2019-05-18T17:01:00.230Z,9.55
2019-05-18T17:03:28.658Z,9.50
2019-05-18T17:05:57.096Z,9.83
2019-05-18T17:08:25.531Z,10.32
2019-05-18T17:10:53.967Z,9.55
2019-05-18T17:13:22.400Z,10.05
2019-05-18T17:15:50.853Z,10.15
2019-05-18T17:18:19.285Z,10.75
2019-05-18T17:20:47.728Z,10.05
2019-05-18T17:23:16.151Z,10.72
2019-05-18T17:25:44.588Z,10.25
2019-05-18T17:28:13.024Z,10.70
2019-05-18T17:30:42.802Z,11.80
2019-05-18T17:33:11.481Z,11.83
2019-05-18T17:35:39.919Z,11.80
2019-05-18T17:38:08.352Z,12.07
2019-05-18T17:40:36.783Z,12.23
2019-05-18T17:43:05.296Z,10.93
2019-05-18T17:45:33.821Z,11.40
2019-05-18T17:48:02.332Z,10.95
2019-05-18T17:50:30.764Z,10.60
2019-05-18T17:52:59.215Z,11.22
2019-05-18T17:55:27.644Z,11.57
2019-05-18T17:57:56.084Z,11.15
2019-05-18T18:00:24.512Z,12.43
2019-05-18T18:02:52.964Z,11.25
2019-05-18T18:05:21.395Z,11.53
2019-05-18T18:07:49.852Z,11.12
2019-05-18T18:10:18.351Z,11.50
2019-05-18T18:12:46.800Z,11.60
2019-05-18T18:15:15.662Z,11.83
2019-05-18T18:17:44.112Z,11.40
2019-05-18T18:20:13.600Z,11.05
2019-05-18T18:22:42.199Z,12.55
2019-05-18T18:25:10.995Z,12.30
2019-05-18T18:27:39.443Z,12.25
2019-05-18T18:30:10.316Z,12.90
2019-05-18T18:32:38.763Z,23.38
2019-05-18T18:35:07.335Z,17.10
2019-05-18T18:37:35.778Z,18.82
2019-05-18T18:40:06.248Z,16.60
2019-05-18T18:42:34.695Z,13.68
2019-05-18T18:45:03.598Z,18.80
2019-05-18T18:47:32.033Z,40.03
2019-05-18T18:50:00.460Z,26.75
2019-05-18T18:52:28.922Z,15.28
2019-05-18T18:54:57.416Z,13.58
2019-05-18T18:57:40.174Z,13.22
2019-05-18T18:59:57.043Z,13.50
2019-05-18T19:02:25.739Z,14.90
2019-05-18T19:04:54.189Z,14.00
2019-05-18T19:07:22.692Z,14.60
2019-05-18T19:09:51.136Z,14.35
2019-05-18T19:12:19.571Z,14.28
2019-05-18T19:14:48.029Z,14.70
2019-05-18T19:17:16.528Z,12.55
2019-05-18T19:19:44.968Z,14.55
2019-05-18T19:22:13.404Z,13.68
2019-05-18T19:24:41.838Z,13.98
2019-05-18T19:27:10.274Z,13.20
2019-05-18T19:29:38.708Z,13.78
2019-05-18T19:32:07.141Z,13.88
2019-05-18T19:34:35.577Z,13.88
2019-05-18T19:37:04.018Z,14.10
2019-05-18T19:39:32.538Z,13.13
2019-05-18T19:42:00.978Z,14.05
2019-05-18T19:44:30.411Z,14.20
2019-05-18T19:46:58.907Z,13.68
2019-05-18T19:49:28.913Z,57.80
2019-05-18T19:51:57.351Z,22.55
2019-05-18T19:54:25.788Z,34.80
2019-05-18T19:56:54.240Z,28.52
2019-05-18T19:59:22.771Z,23.98
2019-05-18T20:01:51.267Z,15.80
2019-05-18T20:04:19.724Z,14.43
2019-05-18T20:06:48.168Z,14.35
2019-05-18T20:09:16.628Z,13.68
2019-05-18T20:11:45.123Z,14.60
2019-05-18T20:14:13.627Z,14.43
2019-05-18T20:16:42.089Z,13.83
2019-05-18T20:19:10.596Z,15.78
2019-05-18T20:21:39.029Z,14.73
2019-05-18T20:24:07.560Z,13.80
2019-05-18T20:26:36.057Z,14.03
2019-05-18T20:29:04.618Z,14.43
2019-05-18T20:31:33.131Z,14.43
2019-05-18T20:34:01.585Z,14.65
2019-05-18T20:36:30.028Z,15.03
2019-05-18T20:38:58.480Z,15.28
2019-05-18T20:41:26.916Z,15.28
2019-05-18T20:43:55.352Z,15.58
2019-05-18T20:46:23.788Z,20.48
2019-05-18T20:48:52.242Z,22.50
2019-05-18T20:51:20.675Z,16.05
2019-05-18T20:53:49.131Z,15.85
2019-05-18T20:56:17.560Z,15.15
2019-05-18T20:58:46.004Z,16.57
2019-05-18T21:01:14.444Z,16.07
2019-05-18T21:03:42.911Z,16.25
2019-05-18T21:06:11.600Z,17.37
2019-05-18T21:08:40.067Z,16.80
2019-05-18T21:11:08.485Z,16.37
2019-05-18T21:13:36.923Z,16.12
2019-05-18T21:16:05.423Z,17.30
2019-05-18T21:18:33.864Z,15.48
2019-05-18T21:21:02.295Z,16.57
2019-05-18T21:23:30.741Z,16.95
2019-05-18T21:25:59.169Z,16.75
2019-05-18T21:28:27.621Z,16.00
2019-05-18T21:30:56.081Z,16.45
2019-05-18T21:33:24.503Z,16.20
2019-05-18T21:35:52.944Z,15.83
2019-05-18T21:38:22.903Z,16.50
2019-05-18T21:40:51.347Z,15.38
2019-05-18T21:43:19.788Z,16.23
2019-05-18T21:45:48.235Z,16.05
2019-05-18T21:48:16.672Z,17.12
2019-05-18T21:50:45.116Z,22.65
2019-05-18T21:53:13.558Z,24.25
2019-05-18T21:55:42.003Z,24.02
2019-05-18T21:58:12.280Z,17.70
2019-05-18T22:00:41.059Z,16.52
2019-05-18T22:03:09.503Z,16.87
2019-05-18T22:05:38.014Z,16.95
2019-05-18T22:08:06.439Z,17.30
2019-05-18T22:10:34.892Z,18.20
2019-05-18T22:13:03.334Z,17.52
2019-05-18T22:15:31.769Z,17.07
2019-05-18T22:18:02.844Z,17.52
2019-05-18T22:20:32.641Z,17.35
2019-05-18T22:23:01.179Z,17.90
2019-05-18T22:25:29.669Z,17.23
2019-05-18T22:27:58.118Z,17.62
2019-05-18T22:30:26.627Z,16.95
2019-05-18T22:32:55.064Z,17.48
2019-05-18T22:35:23.507Z,18.17
2019-05-18T22:37:51.947Z,29.67
2019-05-18T22:40:20.388Z,20.27
2019-05-18T22:42:48.815Z,17.73
2019-05-18T22:45:17.255Z,18.50
2019-05-18T22:47:45.682Z,18.55
2019-05-18T22:50:14.356Z,17.02
2019-05-18T22:52:43.592Z,18.07
2019-05-18T22:55:12.263Z,18.73
2019-05-18T22:57:40.704Z,18.48
2019-05-18T23:00:09.387Z,17.30
2019-05-18T23:02:37.903Z,17.75
2019-05-18T23:05:06.429Z,18.45
2019-05-18T23:07:34.851Z,18.07
2019-05-18T23:10:04.345Z,17.77
2019-05-18T23:12:32.789Z,18.30
2019-05-18T23:15:01.207Z,17.12
2019-05-18T23:17:29.680Z,17.37
2019-05-18T23:19:58.123Z,17.32
2019-05-18T23:22:26.564Z,19.65
2019-05-18T23:24:55.000Z,20.45
2019-05-18T23:27:23.439Z,20.77
2019-05-18T23:29:51.878Z,23.07
2019-05-18T23:32:20.325Z,19.92
2019-05-18T23:34:48.766Z,19.02
2019-05-18T23:37:17.204Z,18.82
2019-05-18T23:39:45.631Z,18.52
2019-05-18T23:42:14.073Z,18.60
2019-05-18T23:44:42.499Z,19.05
2019-05-18T23:47:10.935Z,18.92
2019-05-18T23:49:39.376Z,17.87
2019-05-18T23:52:07.834Z,18.80
2019-05-18T23:54:57.154Z,19.55
2019-05-18T23:57:25.665Z,17.62
2019-05-18T23:59:54.156Z,19.15
